AirNav   Duncan Aviation - Near you to keep you flying
 
 953 users online  

CD16 Branson Heliport
Branson, Colorado, USA

GOING TO BRANSON?


FAA INFORMATION EFFECTIVE 08 SEPTEMBER 2022

Location

FAA Identifier: CD16
Lat/Long: 37-01-09.0810N 103-53-07.8690W
37-01.151350N 103-53.131150W
37.0191892,-103.8855192
(estimated)
Elevation: 6262 ft. / 1909 m (estimated)
Variation: 11E (1985)
Time zone: UTC -6 (UTC -7 during Standard Time)
Zip code: 81027

Heliport Operations

Heliport use: Private use. Permission required prior to landing
Activation date: 10/1979
Control tower: no
ARTCC: ALBUQUERQUE CENTER
FSS: DENVER FLIGHT SERVICE STATION
Attendance: UNATNDD
Segmented circle: no

Nearby radio navigation aids

VOR radial/distance  VOR name  Freq  Var
TBEr212/19.8TOBE VOR/DME114.0512E

Heliport Services

Runway Information

Helipad H1

Dimensions: 100 x 100 ft. / 30 x 30 m
Surface: turf
Traffic pattern: leftleft

Heliport Ownership and Management from official FAA records

Ownership: Privately-owned
Owner: CENTURYLINK
7405 SOUTH PEORIA STREET
BROOMFIELD, CO 80012
Phone (303) 643-4972
Manager: DARREN ALMSKOG
9666 METRO AIRPORT AVE
BROOMFIELD, CO 80012
Phone (303) 304-9960
DARREN ALMSKOG. 303-304-9960. DARREN.ALMSKOG@CENTURYLINK.COM

Additional Remarks

FOR CD CTC ALBUQUERQUE ARTCC AT 505-856-4861.

Instrument Procedures

There are no published instrument procedures at CD16.

Some nearby airports with instrument procedures:

KTAD - Perry Stokes Airport (26 nm NW)
KRTN - Raton Municipal Airport/Crews Field (34 nm SW)
KCAO - Clayton Municipal Airpark (49 nm SE)
4V1 - Spanish Peaks Airfield (59 nm NW)
KLHX - La Junta Municipal Airport (64 nm N)
 
Loc | Ops | Rwys | IFR | FBO | Links
Com | Nav | Svcs | Stats | Notes

AirBoss

 
Area around CD16 (Branson Heliport)
 
Road maps at: MapQuest Bing Google
 
Aerial photo
No photo
 
Sectional chart

 
Airport distance calculator
Flying to Branson Heliport? Find the distance to fly.

From to CD16

Sunrise and sunset
Times for 24-Sep-2022
 Local
(UTC-6)
 Zulu
(UTC)
Morning civil twilight06:2012:20
Sunrise06:4612:46
Sunset18:4900:49
Evening civil twilight19:1501:15

Current date and time
Zulu (UTC)  24-Sep-2022 23:36:54
Local (UTC-6)  24-Sep-2022 17:36:54
 
METAR
KTAD 
25nm NW 
242254Z AUTO 10005KT 10SM CLR 28/02 A3017 RMK AO2 SLP145 T02780017
KRTN 
40nm SW 
242253Z AUTO 14011KT 10SM CLR 27/03 A3019 RMK AO2 SLP150 T02670028
KCAO 
49nm SE 
242255Z AUTO 12008KT 10SM CLR 28/03 A3014 RMK AO2 SLP141 T02780028
TAF
NOTAMs
Click for the latest NOTAMs
NOTAMs are issued by the DoD/FAA and will open in a separate window not controlled by AirNav.

 

 
 

Would you like to see your business listed on this page?

 If your business provides an interesting product or service to pilots, flight crews, aircraft, or users of the Branson Heliport, you should consider listing it here.  To start the listing process, click on the button below
 
Add a business
 

Other Pages about Branson Heliport

Update a link
 
Copyright © AirNav, LLC. All rights reserved. Privacy Policy  Contact